createdAt,value
2022-09-11T00:01:13.338Z,97592.84
2022-09-11T00:03:40.902Z,97601.09
2022-09-11T00:06:10.689Z,97595.88
2022-09-11T00:08:39.731Z,97597.63
2022-09-11T00:11:09.346Z,97597.38
2022-09-11T00:13:38.081Z,97588.25
2022-09-11T00:16:07.267Z,97586.50
2022-09-11T00:18:38.213Z,97596.03
2022-09-11T00:21:07.985Z,97596.72
2022-09-11T00:23:34.577Z,97595.28
2022-09-11T00:26:02.861Z,97598.03
2022-09-11T00:28:30.349Z,97598.03
2022-09-11T00:31:05.338Z,97601.19
2022-09-11T00:33:33.466Z,97600.38
2022-09-11T00:36:03.899Z,97599.78
2022-09-11T00:38:32.210Z,97606.00
2022-09-11T00:41:00.920Z,97595.91
2022-09-11T00:43:29.836Z,97598.41
2022-09-11T00:46:03.401Z,97600.44
2022-09-11T00:48:36.391Z,97602.03
2022-09-11T00:51:04.737Z,97600.00
2022-09-11T00:53:36.045Z,97600.16
2022-09-11T00:56:08.259Z,97596.69
2022-09-11T00:58:39.339Z,97589.72
2022-09-11T01:01:06.250Z,97586.38
2022-09-11T01:03:33.020Z,97595.47
2022-09-11T01:06:00.197Z,97592.13
2022-09-11T01:08:27.680Z,97588.78
2022-09-11T01:11:40.465Z,97596.03
2022-09-11T01:14:35.024Z,97586.19
2022-09-11T01:17:55.318Z,97588.94
2022-09-11T01:20:50.375Z,97586.44
2022-09-11T01:23:40.200Z,97588.59
2022-09-11T01:26:57.706Z,97582.97
2022-09-11T01:30:00.802Z,97578.38
2022-09-11T01:32:57.101Z,97587.09
2022-09-11T01:35:41.608Z,97583.94
2022-09-11T01:41:31.011Z,97579.34
2022-09-11T01:44:07.145Z,97584.72
2022-09-11T01:46:42.330Z,97575.72
2022-09-11T01:49:20.811Z,97575.91
2022-09-11T01:51:52.491Z,97578.66
2022-09-11T01:54:25.556Z,97574.47
2022-09-11T01:56:56.968Z,97573.75
2022-09-11T01:59:31.530Z,97577.22
2022-09-11T02:02:03.672Z,97575.19
2022-09-11T02:04:37.415Z,97568.50
2022-09-11T02:07:19.331Z,97570.53
2022-09-11T02:09:56.403Z,97571.00
2022-09-11T02:12:28.650Z,97571.28
2022-09-11T02:14:55.925Z,97563.75
2022-09-11T02:17:52.566Z,97569.41
2022-09-11T02:20:21.009Z,97566.06
2022-09-11T02:22:49.045Z,97565.34
2022-09-11T02:25:16.049Z,97567.53
2022-09-11T02:27:43.163Z,97565.22
2022-09-11T02:30:10.730Z,97566.25
2022-09-11T02:32:39.820Z,97568.00
2022-09-11T02:35:07.250Z,97559.16
2022-09-11T02:38:06.173Z,97564.22
2022-09-11T02:41:10.041Z,97566.13
2022-09-11T02:43:46.758Z,97557.28
2022-09-11T02:46:45.752Z,97563.06
2022-09-11T02:49:54.897Z,97567.53
2022-09-11T02:52:58.442Z,97568.97
2022-09-11T02:55:49.726Z,97564.19
2022-09-11T02:58:43.905Z,97557.09
2022-09-11T03:01:11.883Z,97557.81
2022-09-11T03:03:45.962Z,97558.13
2022-09-11T03:06:19.279Z,97553.19
2022-09-11T03:08:46.029Z,97546.97
2022-09-11T03:11:15.311Z,97559.97
2022-09-11T03:13:42.141Z,97551.31
2022-09-11T03:16:08.967Z,97543.31
2022-09-11T03:18:35.695Z,97553.78
2022-09-11T03:21:03.742Z,97557.25
2022-09-11T03:23:30.992Z,97545.53
2022-09-11T03:25:58.668Z,97550.78
2022-09-11T03:28:25.410Z,97554.34
2022-09-11T03:30:53.054Z,97545.28
2022-09-11T03:33:19.632Z,97550.78
2022-09-11T03:35:47.213Z,97549.63
2022-09-11T03:38:13.869Z,97557.56
2022-09-11T03:40:42.709Z,97552.47
2022-09-11T03:43:09.538Z,97554.34
2022-09-11T03:45:36.167Z,97552.19
2022-09-11T03:48:02.922Z,97554.53
2022-09-11T03:50:29.505Z,97549.03
2022-09-11T03:52:56.357Z,97546.03
2022-09-11T03:55:23.879Z,97546.56
2022-09-11T03:57:50.516Z,97552.78
2022-09-11T04:00:17.459Z,97546.72
2022-09-11T04:02:43.987Z,97552.31
2022-09-11T04:05:10.745Z,97557.28
2022-09-11T04:07:38.177Z,97551.94
2022-09-11T04:10:05.320Z,97557.44
2022-09-11T04:12:32.154Z,97558.44
2022-09-11T04:14:58.718Z,97557.00
2022-09-11T04:17:25.317Z,97556.88
2022-09-11T04:19:51.874Z,97549.63
2022-09-11T04:22:18.355Z,97556.28
2022-09-11T04:24:45.172Z,97557.00
2022-09-11T04:27:12.943Z,97556.41
2022-09-11T04:29:39.683Z,97559.03
2022-09-11T04:32:06.304Z,97557.78
2022-09-11T04:34:32.882Z,97562.25
2022-09-11T04:36:59.660Z,97562.38
2022-09-11T04:39:26.181Z,97564.84
2022-09-11T04:41:52.916Z,97554.72
2022-09-11T04:44:20.780Z,97559.75
2022-09-11T04:46:47.725Z,97555.97
2022-09-11T04:49:14.894Z,97557.56
2022-09-11T04:51:41.931Z,97561.03
2022-09-11T04:54:12.479Z,97553.78
2022-09-11T04:56:39.114Z,97560.13
2022-09-11T04:59:16.060Z,97560.88
2022-09-11T05:01:44.169Z,97562.59
2022-09-11T05:04:12.851Z,97560.44
2022-09-11T05:06:39.678Z,97564.78
2022-09-11T05:09:08.530Z,97561.69
2022-09-11T05:11:35.640Z,97565.59
2022-09-11T05:14:03.025Z,97568.47
2022-09-11T05:16:30.961Z,97565.47
2022-09-11T05:18:58.848Z,97572.97
2022-09-11T05:21:26.807Z,97571.41
2022-09-11T05:23:56.402Z,97569.56
2022-09-11T05:26:28.413Z,97563.75
2022-09-11T05:29:00.049Z,97561.63
2022-09-11T05:31:28.885Z,97564.38
2022-09-11T05:33:56.419Z,97570.16
2022-09-11T05:36:23.842Z,97573.91
2022-09-11T05:38:50.743Z,97573.66
2022-09-11T05:41:17.467Z,97579.00
2022-09-11T05:43:44.375Z,97578.81
2022-09-11T05:46:15.445Z,97578.97
2022-09-11T05:48:43.284Z,97577.91
2022-09-11T05:51:13.063Z,97575.41
2022-09-11T05:53:40.845Z,97580.00
2022-09-11T05:56:19.221Z,97576.66
2022-09-11T05:58:47.195Z,97586.03
2022-09-11T06:01:16.568Z,97589.84
2022-09-11T06:03:44.032Z,97587.34
2022-09-11T06:06:12.577Z,97577.06
2022-09-11T06:08:42.710Z,97582.84
2022-09-11T06:11:09.977Z,97582.84
2022-09-11T06:13:41.671Z,97584.69
2022-09-11T06:16:18.643Z,97585.66
2022-09-11T06:18:49.428Z,97584.31
2022-09-11T06:21:24.332Z,97587.16
2022-09-11T06:23:52.917Z,97581.06
2022-09-11T06:26:25.203Z,97590.75
2022-09-11T06:28:52.908Z,97589.25
2022-09-11T06:31:22.695Z,97591.28
2022-09-11T06:33:50.138Z,97588.84
2022-09-11T06:36:23.150Z,97592.78
2022-09-11T06:38:57.689Z,97589.19
2022-09-11T06:41:25.812Z,97591.66
2022-09-11T06:43:53.035Z,97588.06
2022-09-11T06:46:22.626Z,97595.47
2022-09-11T06:48:50.798Z,97597.38
2022-09-11T06:51:20.076Z,97594.63
2022-09-11T06:53:47.501Z,97592.25
2022-09-11T06:56:18.730Z,97595.47
2022-09-11T06:58:46.088Z,97598.34
2022-09-11T07:01:17.506Z,97593.84
2022-09-11T07:03:54.852Z,97596.97
2022-09-11T07:06:24.584Z,97593.19
2022-09-11T07:09:00.816Z,97603.59
2022-09-11T07:11:29.602Z,97597.88
2022-09-11T07:13:56.208Z,97593.28
2022-09-11T07:16:22.836Z,97599.97
2022-09-11T07:18:49.550Z,97605.19
2022-09-11T07:21:21.894Z,97600.13
2022-09-11T07:23:49.660Z,97603.28
2022-09-11T07:26:17.494Z,97601.91
2022-09-11T07:28:44.494Z,97606.59
2022-09-11T07:31:17.446Z,97609.75
2022-09-11T07:33:48.810Z,97610.00
2022-09-11T07:36:18.711Z,97600.31
2022-09-11T07:38:48.134Z,97599.72
2022-09-11T07:41:17.661Z,97606.94
2022-09-11T07:43:48.345Z,97609.03
2022-09-11T07:46:15.361Z,97610.00
2022-09-11T07:48:43.101Z,97605.13
2022-09-11T07:51:12.521Z,97613.97
2022-09-11T07:53:41.501Z,97607.44
2022-09-11T07:56:11.434Z,97616.72
2022-09-11T07:58:42.001Z,97618.22
2022-09-11T08:01:14.301Z,97621.06
2022-09-11T08:03:45.629Z,97619.34
2022-09-11T08:06:21.901Z,97621.88
2022-09-11T08:08:53.949Z,97619.84
2022-09-11T08:11:21.576Z,97612.88
2022-09-11T08:13:53.436Z,97612.53
2022-09-11T08:16:22.078Z,97617.63
2022-09-11T08:18:48.756Z,97618.47
2022-09-11T08:21:15.988Z,97615.53
2022-09-11T08:23:44.018Z,97621.06
2022-09-11T08:26:32.206Z,97629.56
2022-09-11T08:29:00.070Z,97620.34
2022-09-11T08:31:27.867Z,97632.50
2022-09-11T08:33:55.451Z,97629.16
2022-09-11T08:36:23.339Z,97634.31
2022-09-11T08:38:49.994Z,97637.13
2022-09-11T08:41:56.507Z,97636.38
2022-09-11T08:44:37.249Z,97631.38
2022-09-11T08:47:13.917Z,97636.09
2022-09-11T08:49:50.047Z,97632.94
2022-09-11T08:52:16.927Z,97643.50
2022-09-11T08:54:45.994Z,97642.88
2022-09-11T08:57:55.762Z,97642.31
2022-09-11T09:00:28.151Z,97640.94
2022-09-11T09:03:30.499Z,97633.66
2022-09-11T09:06:40.601Z,97641.81
2022-09-11T09:35:26.856Z,97633.34
2022-09-11T09:37:54.262Z,97626.97
2022-09-11T09:40:24.461Z,97625.94
2022-09-11T09:43:02.281Z,97629.72
2022-09-11T09:45:40.163Z,97626.53
2022-09-11T09:48:10.550Z,97628.44
2022-09-11T09:50:42.850Z,97620.31
2022-09-11T09:53:46.421Z,97622.78
2022-09-11T09:56:18.167Z,97620.75
2022-09-11T09:59:01.528Z,97607.88
2022-09-11T10:01:51.244Z,97619.28
2022-09-11T10:04:24.071Z,97621.22
2022-09-11T10:07:14.193Z,97610.88
2022-09-11T10:09:51.560Z,97619.44
2022-09-11T10:12:25.026Z,97610.41
2022-09-11T10:15:02.477Z,97613.56
2022-09-11T10:17:32.354Z,97614.19
2022-09-11T10:20:22.998Z,97616.44
2022-09-11T10:22:51.104Z,97616.25
2022-09-11T10:25:29.969Z,97612.50
2022-09-11T10:28:14.308Z,97615.41
2022-09-11T10:31:04.418Z,97619.34
2022-09-11T10:33:35.608Z,97614.41
2022-09-11T10:36:06.006Z,97615.44
2022-09-11T10:38:45.973Z,97617.09
2022-09-11T10:41:19.601Z,97616.28
2022-09-11T10:44:16.064Z,97620.56
2022-09-11T10:46:45.205Z,97622.97
2022-09-11T10:49:22.788Z,97619.84
2022-09-11T10:52:02.106Z,97627.00
2022-09-11T10:55:03.878Z,97622.91
2022-09-11T10:57:56.026Z,97626.63
2022-09-11T11:00:29.035Z,97618.09
2022-09-11T11:03:20.114Z,97622.78
2022-09-11T11:06:45.424Z,97623.81
2022-09-11T11:09:54.936Z,97624.94
2022-09-11T11:12:50.353Z,97632.63
2022-09-11T11:15:31.020Z,97625.75
2022-09-11T11:18:22.562Z,97637.28
2022-09-11T11:21:51.000Z,97639.09
2022-09-11T11:24:27.672Z,97645.31
2022-09-11T11:27:10.132Z,97643.88
2022-09-11T11:30:30.519Z,97648.78
2022-09-11T11:33:17.405Z,97642.31
2022-09-11T11:36:15.386Z,97648.06
2022-09-11T11:38:51.103Z,97654.28
2022-09-11T11:41:44.589Z,97655.56
2022-09-11T11:44:17.072Z,97651.34
2022-09-11T11:46:47.829Z,97654.69
2022-09-11T11:49:46.290Z,97654.72
2022-09-11T11:52:31.310Z,97652.72
2022-09-11T11:55:40.319Z,97660.00
2022-09-11T11:58:34.568Z,97662.66
2022-09-11T12:01:06.890Z,97662.56
2022-09-11T12:03:47.878Z,97667.22
2022-09-11T12:06:15.375Z,97664.81
2022-09-11T12:08:46.657Z,97667.22
2022-09-11T12:11:18.333Z,97664.47
2022-09-11T12:13:47.921Z,97661.59
2022-09-11T12:16:35.642Z,97665.56
2022-09-11T12:19:22.246Z,97656.19
2022-09-11T12:21:54.754Z,97655.25
2022-09-11T12:24:42.267Z,97661.13
2022-09-11T12:27:50.857Z,97666.16
2022-09-11T12:30:28.634Z,97667.97
2022-09-11T12:33:01.205Z,97668.53
2022-09-11T12:35:46.633Z,97667.94
2022-09-11T12:38:35.495Z,97658.22
2022-09-11T12:41:26.983Z,97662.91
2022-09-11T12:43:54.660Z,97656.44
2022-09-11T12:47:04.274Z,97656.78
2022-09-11T12:49:30.984Z,97654.34
2022-09-11T12:52:01.289Z,97654.38
2022-09-11T12:54:42.586Z,97653.19
2022-09-11T12:57:19.276Z,97653.53
2022-09-11T12:59:53.301Z,97656.91
2022-09-11T13:02:40.025Z,97654.13
2022-09-11T13:05:17.774Z,97643.56
2022-09-11T13:07:48.356Z,97647.28
2022-09-11T13:10:39.130Z,97650.78
2022-09-11T13:13:26.807Z,97649.81
2022-09-11T13:15:57.324Z,97655.09
2022-09-11T13:18:32.342Z,97653.06
2022-09-11T13:21:01.624Z,97639.16
2022-09-11T13:23:29.202Z,97641.81
2022-09-11T13:25:58.090Z,97644.22
2022-09-11T13:28:27.444Z,97644.78
2022-09-11T13:31:00.605Z,97645.63
2022-09-11T13:33:29.373Z,97637.94
2022-09-11T13:36:00.728Z,97640.22
2022-09-11T13:38:32.303Z,97656.31
2022-09-11T13:41:02.874Z,97666.16
2022-09-11T13:43:35.772Z,97667.22
2022-09-11T13:46:21.236Z,97659.91
2022-09-11T13:49:13.319Z,97666.84
2022-09-11T13:51:44.619Z,97659.53
2022-09-11T13:54:26.223Z,97657.84
2022-09-11T13:57:13.001Z,97670.91
2022-09-11T13:59:50.046Z,97677.94
2022-09-11T14:02:54.591Z,97672.34
2022-09-11T14:05:27.178Z,97682.94
2022-09-11T14:08:10.073Z,97677.19
2022-09-11T14:10:52.485Z,97674.91
2022-09-11T14:13:44.860Z,97677.91
2022-09-11T14:16:21.942Z,97680.84
2022-09-11T14:19:11.235Z,97682.66
2022-09-11T14:21:46.637Z,97678.41
2022-09-11T14:25:05.666Z,97678.25
2022-09-11T14:27:37.609Z,97684.63
2022-09-11T14:30:36.158Z,97688.34
2022-09-11T14:33:13.201Z,97670.22
2022-09-11T14:35:39.937Z,97670.69
2022-09-11T14:38:06.639Z,97670.34
2022-09-11T14:40:33.255Z,97671.44
2022-09-11T14:42:59.838Z,97670.09
2022-09-11T14:45:26.487Z,97673.25
2022-09-11T14:47:53.520Z,97672.03
2022-09-11T14:50:20.279Z,97668.19
2022-09-11T14:52:46.857Z,97668.53
2022-09-11T14:55:18.282Z,97671.56
2022-09-11T14:57:48.235Z,97677.31
2022-09-11T15:00:18.654Z,97676.22
2022-09-11T15:02:46.357Z,97669.75
2022-09-11T15:05:19.262Z,97667.44
2022-09-11T15:07:45.892Z,97666.97
2022-09-11T15:10:13.704Z,97658.22
2022-09-11T15:12:40.627Z,97646.81
2022-09-11T15:15:07.866Z,97647.31
2022-09-11T15:17:36.340Z,97663.88
2022-09-11T15:20:09.164Z,97679.97
2022-09-11T15:22:37.320Z,97679.59
2022-09-11T15:25:04.394Z,97687.53
2022-09-11T15:27:31.340Z,97684.63
2022-09-11T15:29:58.018Z,97684.38
2022-09-11T15:32:24.638Z,97685.72
2022-09-11T15:34:54.732Z,97685.34
2022-09-11T15:37:21.581Z,97691.47
2022-09-11T15:39:50.619Z,97683.78
2022-09-11T15:42:17.959Z,97669.97
2022-09-11T15:44:45.391Z,97680.31
2022-09-11T15:47:12.434Z,97679.59
2022-09-11T15:49:41.145Z,97691.38
2022-09-11T15:52:07.953Z,97687.63
2022-09-11T15:54:34.550Z,97698.31
2022-09-11T15:57:01.181Z,97695.81
2022-09-11T15:59:28.499Z,97692.44
2022-09-11T16:01:55.114Z,97689.44
2022-09-11T16:04:26.530Z,97690.13
2022-09-11T16:06:54.849Z,97694.09
2022-09-11T16:09:26.885Z,97701.88
2022-09-11T16:11:54.754Z,97713.75
2022-09-11T16:14:25.287Z,97721.19
2022-09-11T16:16:52.320Z,97717.00
2022-09-11T16:19:22.746Z,97718.94
2022-09-11T16:21:49.743Z,97720.63
2022-09-11T16:24:16.704Z,97716.53
2022-09-11T16:26:44.565Z,97722.16
2022-09-11T16:29:14.601Z,97730.44
2022-09-11T16:31:41.987Z,97726.03
2022-09-11T16:34:09.021Z,97721.59
2022-09-11T16:36:38.808Z,97721.34
2022-09-11T16:39:07.952Z,97729.72
2022-09-11T16:41:37.045Z,97731.50
2022-09-11T16:44:05.185Z,97730.66
2022-09-11T16:46:33.344Z,97730.75
2022-09-11T16:49:02.027Z,97724.66
2022-09-11T16:51:29.640Z,97734.50
2022-09-11T16:53:56.232Z,97728.16
2022-09-11T16:56:24.377Z,97736.03
2022-09-11T16:58:51.540Z,97735.94
2022-09-11T17:01:23.590Z,97727.88
2022-09-11T17:03:53.038Z,97729.06
2022-09-11T17:06:20.357Z,97732.88
2022-09-11T17:08:50.510Z,97726.84
2022-09-11T17:11:20.141Z,97729.22
2022-09-11T17:13:47.468Z,97724.56
2022-09-11T17:16:21.175Z,97717.94
2022-09-11T17:18:49.149Z,97722.50
2022-09-11T17:21:16.452Z,97722.06
2022-09-11T17:23:43.712Z,97723.41
2022-09-11T17:26:13.561Z,97722.28
2022-09-11T17:28:41.869Z,97726.22
2022-09-11T17:31:10.425Z,97726.09
2022-09-11T17:33:40.202Z,97732.81
2022-09-11T17:36:08.879Z,97728.00
2022-09-11T17:38:36.579Z,97728.97
2022-09-11T17:41:05.872Z,97743.50
2022-09-11T17:43:33.263Z,97742.91
2022-09-11T17:46:12.180Z,97755.25
2022-09-11T17:48:39.743Z,97750.31
2022-09-11T17:51:26.329Z,97749.19
2022-09-11T17:53:56.282Z,97752.75
2022-09-11T17:56:25.433Z,97750.78
2022-09-11T17:58:55.811Z,97761.78
2022-09-11T18:01:24.405Z,97764.53
2022-09-11T18:03:53.265Z,97764.88
2022-09-11T18:06:38.586Z,97762.84
2022-09-11T18:09:15.094Z,97762.84
2022-09-11T18:11:43.154Z,97767.63
2022-09-11T18:14:10.573Z,97773.72
2022-09-11T18:16:38.053Z,97772.72
2022-09-11T18:19:05.560Z,97771.59
2022-09-11T18:21:33.293Z,97775.81
2022-09-11T18:24:03.559Z,97770.63
2022-09-11T18:26:33.049Z,97772.94
2022-09-11T18:29:02.529Z,97773.06
2022-09-11T18:31:33.383Z,97777.00
2022-09-11T18:34:01.235Z,97781.63
2022-09-11T18:36:31.404Z,97784.72
2022-09-11T18:39:03.498Z,97782.81
2022-09-11T18:41:32.809Z,97779.47
2022-09-11T18:44:00.757Z,97782.81
2022-09-11T18:46:27.670Z,97781.63
2022-09-11T18:48:55.954Z,97786.28
2022-09-11T18:51:22.949Z,97786.69
2022-09-11T18:53:54.031Z,97790.50
2022-09-11T18:56:22.385Z,97783.13
2022-09-11T18:58:50.515Z,97784.63
2022-09-11T19:01:19.324Z,97782.88
2022-09-11T19:03:46.162Z,97780.84
2022-09-11T19:06:17.518Z,97789.22
2022-09-11T19:08:46.783Z,97787.38
2022-09-11T19:11:19.480Z,97792.59
2022-09-11T19:13:46.702Z,97785.13
2022-09-11T19:16:14.658Z,97790.19
2022-09-11T19:18:41.476Z,97792.66
2022-09-11T19:21:11.630Z,97794.66
2022-09-11T19:23:40.963Z,97793.94
2022-09-11T19:26:12.101Z,97800.44
2022-09-11T19:28:41.040Z,97798.69
2022-09-11T19:31:09.380Z,97801.47
2022-09-11T19:33:37.474Z,97806.53
2022-09-11T19:36:10.798Z,97801.91
2022-09-11T19:38:42.730Z,97800.84
2022-09-11T19:41:12.733Z,97805.56
2022-09-11T19:43:41.022Z,97796.13
2022-09-11T19:46:10.660Z,97799.44
2022-09-11T19:48:40.635Z,97799.59
2022-09-11T19:51:13.275Z,97800.03
2022-09-11T19:53:40.356Z,97806.88
2022-09-11T19:56:07.633Z,97804.94
2022-09-11T19:58:34.923Z,97810.00
2022-09-11T20:01:13.758Z,97802.03
2022-09-11T20:03:42.562Z,97812.63
2022-09-11T20:06:11.276Z,97815.97
2022-09-11T20:08:38.618Z,97814.53
2022-09-11T20:11:07.368Z,97818.78
2022-09-11T20:13:35.431Z,97817.47
2022-09-11T20:16:06.926Z,97821.22
2022-09-11T20:18:33.771Z,97810.34
2022-09-11T20:21:05.982Z,97819.50
2022-09-11T20:23:33.093Z,97816.03
2022-09-11T20:26:32.600Z,97822.22
2022-09-11T20:29:06.933Z,97824.53
2022-09-11T20:31:42.413Z,97820.06
2022-09-11T20:34:13.037Z,97814.56
2022-09-11T20:36:39.657Z,97828.00
2022-09-11T20:39:06.258Z,97819.34
2022-09-11T20:41:33.336Z,97821.38
2022-09-11T20:44:04.049Z,97820.66
2022-09-11T20:46:30.750Z,97818.22
2022-09-11T20:48:57.613Z,97820.69
2022-09-11T20:51:24.417Z,97827.34
2022-09-11T20:53:51.312Z,97825.88
2022-09-11T20:56:23.883Z,97832.41
2022-09-11T20:58:51.172Z,97827.06
2022-09-11T21:01:21.384Z,97823.56
2022-09-11T21:03:56.561Z,97832.69
2022-09-11T21:06:26.405Z,97832.56
2022-09-11T21:08:55.615Z,97829.94
2022-09-11T21:11:23.075Z,97831.38
2022-09-11T21:13:49.670Z,97830.81
2022-09-11T21:16:16.878Z,97838.19
2022-09-11T21:18:49.730Z,97834.28
2022-09-11T21:21:17.406Z,97827.91
2022-09-11T21:23:44.580Z,97832.84
2022-09-11T21:26:13.529Z,97839.06
2022-09-11T21:28:40.594Z,97833.84
2022-09-11T21:31:07.311Z,97836.72
2022-09-11T21:33:35.621Z,97840.34
2022-09-11T21:36:02.882Z,97844.53
2022-09-11T21:38:29.982Z,97839.50
2022-09-11T21:40:58.509Z,97837.63
2022-09-11T21:43:26.049Z,97838.19
2022-09-11T21:45:53.002Z,97834.44
2022-09-11T21:48:20.220Z,97836.44
2022-09-11T21:50:46.857Z,97828.78
2022-09-11T21:53:13.517Z,97828.78
2022-09-11T21:55:42.649Z,97825.88
2022-09-11T21:58:15.093Z,97829.38
2022-09-11T22:00:43.220Z,97817.50
2022-09-11T22:03:12.447Z,97830.53
2022-09-11T22:05:44.095Z,97817.75
2022-09-11T22:08:12.177Z,97820.78
2022-09-11T22:10:47.788Z,97816.72
2022-09-11T22:13:14.898Z,97818.50
2022-09-11T22:15:42.645Z,97816.34
2022-09-11T22:18:09.578Z,97820.66
2022-09-11T22:20:40.638Z,97820.94
2022-09-11T22:23:08.310Z,97827.16
2022-09-11T22:25:36.878Z,97816.88
2022-09-11T22:28:04.787Z,97822.66
2022-09-11T22:30:31.741Z,97810.94
2022-09-11T22:32:59.903Z,97815.00
2022-09-11T22:35:27.503Z,97817.75
2022-09-11T22:37:54.104Z,97820.50
2022-09-11T22:40:20.651Z,97815.16
2022-09-11T22:42:47.573Z,97826.63
2022-09-11T22:45:14.178Z,97823.13
2022-09-11T22:47:40.979Z,97823.00
2022-09-11T22:50:08.221Z,97822.28
2022-09-11T22:52:35.612Z,97820.97
2022-09-11T22:55:02.486Z,97805.31
2022-09-11T22:57:29.386Z,97810.81
2022-09-11T22:59:56.206Z,97815.00
2022-09-11T23:02:22.920Z,97813.84
2022-09-11T23:05:08.276Z,97808.78
2022-09-11T23:07:34.888Z,97804.88
2022-09-11T23:10:01.844Z,97807.47
2022-09-11T23:12:28.470Z,97806.75
2022-09-11T23:14:55.188Z,97808.78
2022-09-11T23:17:21.754Z,97813.84
2022-09-11T23:19:48.735Z,97811.94
2022-09-11T23:22:15.590Z,97809.06
2022-09-11T23:24:42.164Z,97816.03
2022-09-11T23:27:08.729Z,97810.66
2022-09-11T23:29:35.397Z,97807.78
2022-09-11T23:32:02.347Z,97806.00
2022-09-11T23:34:29.263Z,97807.06
2022-09-11T23:36:55.810Z,97798.06
2022-09-11T23:39:22.351Z,97797.63
2022-09-11T23:41:49.179Z,97795.59
2022-09-11T23:44:15.836Z,97800.22
2022-09-11T23:46:42.633Z,97799.94
2022-09-11T23:49:11.338Z,97797.91
2022-09-11T23:51:38.033Z,97802.09
2022-09-11T23:54:05.564Z,97800.06
2022-09-11T23:56:32.129Z,97789.66
2022-09-11T23:58:58.967Z,97800.38
